sensor_id;sensor_type;location;lat;lon;timestamp;temperature;humidity
1413;DHT22;701;52.526;13.408;2023-03-14T00:01:58;13.10;35.70
1413;DHT22;701;52.526;13.408;2023-03-14T00:04:24;13.00;36.50
1413;DHT22;701;52.526;13.408;2023-03-14T00:06:50;13.00;36.70
1413;DHT22;701;52.526;13.408;2023-03-14T00:09:19;12.90;36.20
1413;DHT22;701;52.526;13.408;2023-03-14T00:11:44;12.90;37.40
1413;DHT22;701;52.526;13.408;2023-03-14T00:14:11;12.90;37.10
1413;DHT22;701;52.526;13.408;2023-03-14T00:16:37;12.80;36.70
1413;DHT22;701;52.526;13.408;2023-03-14T00:19:03;12.80;36.50
1413;DHT22;701;52.526;13.408;2023-03-14T00:21:28;12.80;37.10
1413;DHT22;701;52.526;13.408;2023-03-14T00:23:54;12.70;35.90
1413;DHT22;701;52.526;13.408;2023-03-14T00:26:20;12.70;37.20
1413;DHT22;701;52.526;13.408;2023-03-14T00:28:47;12.70;37.50
1413;DHT22;701;52.526;13.408;2023-03-14T00:31:16;12.60;37.10
1413;DHT22;701;52.526;13.408;2023-03-14T00:33:43;12.60;38.00
1413;DHT22;701;52.526;13.408;2023-03-14T00:36:16;12.50;37.40
1413;DHT22;701;52.526;13.408;2023-03-14T00:38:45;12.50;37.80
1413;DHT22;701;52.526;13.408;2023-03-14T00:41:14;12.50;38.40
1413;DHT22;701;52.526;13.408;2023-03-14T00:43:41;12.50;38.30
1413;DHT22;701;52.526;13.408;2023-03-14T00:46:07;12.40;38.50
1413;DHT22;701;52.526;13.408;2023-03-14T00:48:33;12.40;38.30
1413;DHT22;701;52.526;13.408;2023-03-14T00:51:00;12.40;38.70
1413;DHT22;701;52.526;13.408;2023-03-14T00:53:26;12.40;38.90
1413;DHT22;701;52.526;13.408;2023-03-14T00:55:52;12.30;38.90
1413;DHT22;701;52.526;13.408;2023-03-14T00:58:18;12.30;39.10
1413;DHT22;701;52.526;13.408;2023-03-14T01:00:45;12.30;39.20
1413;DHT22;701;52.526;13.408;2023-03-14T01:03:12;12.30;39.10
1413;DHT22;701;52.526;13.408;2023-03-14T01:05:38;12.20;39.10
1413;DHT22;701;52.526;13.408;2023-03-14T01:08:05;12.30;39.40
1413;DHT22;701;52.526;13.408;2023-03-14T01:10:34;12.30;39.70
1413;DHT22;701;52.526;13.408;2023-03-14T01:13:00;12.30;39.70
1413;DHT22;701;52.526;13.408;2023-03-14T01:15:28;12.20;39.60
1413;DHT22;701;52.526;13.408;2023-03-14T01:17:53;12.20;39.90
1413;DHT22;701;52.526;13.408;2023-03-14T01:20:19;12.20;40.40
1413;DHT22;701;52.526;13.408;2023-03-14T01:22:45;12.20;40.50
1413;DHT22;701;52.526;13.408;2023-03-14T01:25:14;12.10;40.30
1413;DHT22;701;52.526;13.408;2023-03-14T01:27:41;12.10;40.60
1413;DHT22;701;52.526;13.408;2023-03-14T01:30:08;12.10;40.20
1413;DHT22;701;52.526;13.408;2023-03-14T01:32:35;12.10;40.50
1413;DHT22;701;52.526;13.408;2023-03-14T01:35:01;12.10;40.90
1413;DHT22;701;52.526;13.408;2023-03-14T01:37:27;12.10;41.20
1413;DHT22;701;52.526;13.408;2023-03-14T01:39:52;12.10;40.30
1413;DHT22;701;52.526;13.408;2023-03-14T01:42:19;12.10;41.10
1413;DHT22;701;52.526;13.408;2023-03-14T01:44:56;12.10;41.10
1413;DHT22;701;52.526;13.408;2023-03-14T01:47:24;12.10;40.40
1413;DHT22;701;52.526;13.408;2023-03-14T01:50:07;12.10;41.00
1413;DHT22;701;52.526;13.408;2023-03-14T01:52:41;12.20;40.00
1413;DHT22;701;52.526;13.408;2023-03-14T01:55:12;12.30;40.30
1413;DHT22;701;52.526;13.408;2023-03-14T01:57:39;12.30;38.90
1413;DHT22;701;52.526;13.408;2023-03-14T02:00:09;12.40;39.40
1413;DHT22;701;52.526;13.408;2023-03-14T02:02:41;12.40;39.40
1413;DHT22;701;52.526;13.408;2023-03-14T02:05:09;12.40;38.70
1413;DHT22;701;52.526;13.408;2023-03-14T02:07:51;12.50;38.10
1413;DHT22;701;52.526;13.408;2023-03-14T02:10:32;12.50;38.80
1413;DHT22;701;52.526;13.408;2023-03-14T02:13:02;12.40;39.00
1413;DHT22;701;52.526;13.408;2023-03-14T02:15:37;12.40;38.50
1413;DHT22;701;52.526;13.408;2023-03-14T02:18:10;12.40;38.90
1413;DHT22;701;52.526;13.408;2023-03-14T02:21:25;12.40;39.10
1413;DHT22;701;52.526;13.408;2023-03-14T02:24:07;12.30;38.70
1413;DHT22;701;52.526;13.408;2023-03-14T02:27:07;12.30;39.40
1413;DHT22;701;52.526;13.408;2023-03-14T02:29:37;12.30;39.90
1413;DHT22;701;52.526;13.408;2023-03-14T02:32:05;12.30;40.10
1413;DHT22;701;52.526;13.408;2023-03-14T02:34:32;12.30;39.50
1413;DHT22;701;52.526;13.408;2023-03-14T02:36:58;12.30;39.80
1413;DHT22;701;52.526;13.408;2023-03-14T02:39:33;12.30;39.00
1413;DHT22;701;52.526;13.408;2023-03-14T02:42:00;12.40;38.30
1413;DHT22;701;52.526;13.408;2023-03-14T02:44:26;12.40;38.90
1413;DHT22;701;52.526;13.408;2023-03-14T02:46:52;12.40;39.00
1413;DHT22;701;52.526;13.408;2023-03-14T02:49:18;12.40;37.70
1413;DHT22;701;52.526;13.408;2023-03-14T02:51:45;12.40;37.80
1413;DHT22;701;52.526;13.408;2023-03-14T02:54:11;12.40;37.20
1413;DHT22;701;52.526;13.408;2023-03-14T02:56:38;12.40;37.10
1413;DHT22;701;52.526;13.408;2023-03-14T02:59:04;12.40;36.90
1413;DHT22;701;52.526;13.408;2023-03-14T03:01:41;12.40;37.70
1413;DHT22;701;52.526;13.408;2023-03-14T03:04:07;12.40;36.90
1413;DHT22;701;52.526;13.408;2023-03-14T03:06:33;12.40;37.60
1413;DHT22;701;52.526;13.408;2023-03-14T03:08:59;12.40;37.70
1413;DHT22;701;52.526;13.408;2023-03-14T03:11:26;12.30;37.20
1413;DHT22;701;52.526;13.408;2023-03-14T03:13:52;12.30;37.70
1413;DHT22;701;52.526;13.408;2023-03-14T03:16:18;12.30;37.70
1413;DHT22;701;52.526;13.408;2023-03-14T03:18:44;12.20;38.00
1413;DHT22;701;52.526;13.408;2023-03-14T03:21:09;12.20;37.60
1413;DHT22;701;52.526;13.408;2023-03-14T03:23:35;12.20;37.60
1413;DHT22;701;52.526;13.408;2023-03-14T03:26:01;12.10;37.40
1413;DHT22;701;52.526;13.408;2023-03-14T03:28:28;12.10;37.90
1413;DHT22;701;52.526;13.408;2023-03-14T03:30:55;12.10;38.40
1413;DHT22;701;52.526;13.408;2023-03-14T03:33:21;12.10;37.50
1413;DHT22;701;52.526;13.408;2023-03-14T03:35:50;12.10;37.60
1413;DHT22;701;52.526;13.408;2023-03-14T03:38:22;12.10;38.30
1413;DHT22;701;52.526;13.408;2023-03-14T03:40:52;12.00;37.40
1413;DHT22;701;52.526;13.408;2023-03-14T03:43:18;12.00;38.20
1413;DHT22;701;52.526;13.408;2023-03-14T03:45:46;12.00;38.80
1413;DHT22;701;52.526;13.408;2023-03-14T03:48:12;12.00;38.40
1413;DHT22;701;52.526;13.408;2023-03-14T03:50:44;12.00;37.40
1413;DHT22;701;52.526;13.408;2023-03-14T03:53:11;12.00;38.20
1413;DHT22;701;52.526;13.408;2023-03-14T03:55:37;12.00;38.60
1413;DHT22;701;52.526;13.408;2023-03-14T03:58:02;12.00;37.90
1413;DHT22;701;52.526;13.408;2023-03-14T04:00:28;11.90;38.30
1413;DHT22;701;52.526;13.408;2023-03-14T04:02:54;11.90;37.40
1413;DHT22;701;52.526;13.408;2023-03-14T04:05:21;11.90;37.80
1413;DHT22;701;52.526;13.408;2023-03-14T04:07:55;11.90;37.30
1413;DHT22;701;52.526;13.408;2023-03-14T04:10:24;11.90;38.90
1413;DHT22;701;52.526;13.408;2023-03-14T04:13:16;11.90;38.60
1413;DHT22;701;52.526;13.408;2023-03-14T04:15:48;11.90;39.40
1413;DHT22;701;52.526;13.408;2023-03-14T04:18:20;11.80;38.70
1413;DHT22;701;52.526;13.408;2023-03-14T04:20:51;11.80;38.70
1413;DHT22;701;52.526;13.408;2023-03-14T04:23:18;11.80;37.70
1413;DHT22;701;52.526;13.408;2023-03-14T04:25:48;11.80;38.70
1413;DHT22;701;52.526;13.408;2023-03-14T04:28:14;11.80;38.90
1413;DHT22;701;52.526;13.408;2023-03-14T04:30:40;11.70;38.10
1413;DHT22;701;52.526;13.408;2023-03-14T04:33:12;11.80;38.50
1413;DHT22;701;52.526;13.408;2023-03-14T04:35:47;11.80;38.60
1413;DHT22;701;52.526;13.408;2023-03-14T04:38:15;11.80;38.90
1413;DHT22;701;52.526;13.408;2023-03-14T04:40:44;11.80;38.80
1413;DHT22;701;52.526;13.408;2023-03-14T04:43:11;11.80;39.30
1413;DHT22;701;52.526;13.408;2023-03-14T04:45:44;11.80;37.20
1413;DHT22;701;52.526;13.408;2023-03-14T04:48:13;11.80;38.40
1413;DHT22;701;52.526;13.408;2023-03-14T04:50:40;11.80;38.10
1413;DHT22;701;52.526;13.408;2023-03-14T04:53:06;11.80;38.10
1413;DHT22;701;52.526;13.408;2023-03-14T04:55:32;11.80;38.40
1413;DHT22;701;52.526;13.408;2023-03-14T04:58:00;11.80;38.00
1413;DHT22;701;52.526;13.408;2023-03-14T05:00:26;11.70;38.00
1413;DHT22;701;52.526;13.408;2023-03-14T05:03:22;11.70;37.10
1413;DHT22;701;52.526;13.408;2023-03-14T05:05:57;11.70;37.10
1413;DHT22;701;52.526;13.408;2023-03-14T05:08:39;11.70;37.10
1413;DHT22;701;52.526;13.408;2023-03-14T05:11:31;11.70;37.20
1413;DHT22;701;52.526;13.408;2023-03-14T05:14:16;11.70;37.70
1413;DHT22;701;52.526;13.408;2023-03-14T05:16:57;11.70;37.70
1413;DHT22;701;52.526;13.408;2023-03-14T05:19:38;11.80;37.70
1413;DHT22;701;52.526;13.408;2023-03-14T05:22:22;11.80;37.20
1413;DHT22;701;52.526;13.408;2023-03-14T05:25:09;11.80;37.20
1413;DHT22;701;52.526;13.408;2023-03-14T05:27:55;11.80;37.30
1413;DHT22;701;52.526;13.408;2023-03-14T05:30:38;11.80;37.20
1413;DHT22;701;52.526;13.408;2023-03-14T05:33:26;11.80;37.00
1413;DHT22;701;52.526;13.408;2023-03-14T05:36:17;11.80;37.30
1413;DHT22;701;52.526;13.408;2023-03-14T05:39:03;11.80;36.20
1413;DHT22;701;52.526;13.408;2023-03-14T05:41:47;11.80;37.20
1413;DHT22;701;52.526;13.408;2023-03-14T05:44:13;11.80;37.20
1413;DHT22;701;52.526;13.408;2023-03-14T05:46:54;11.90;37.30
1413;DHT22;701;52.526;13.408;2023-03-14T05:49:32;11.90;36.70
1413;DHT22;701;52.526;13.408;2023-03-14T05:52:20;11.90;35.70
1413;DHT22;701;52.526;13.408;2023-03-14T05:54:56;11.90;35.70
1413;DHT22;701;52.526;13.408;2023-03-14T05:57:35;11.90;35.50
1413;DHT22;701;52.526;13.408;2023-03-14T06:00:39;12.00;35.50
1413;DHT22;701;52.526;13.408;2023-03-14T06:03:38;12.00;35.10
1413;DHT22;701;52.526;13.408;2023-03-14T06:06:05;12.00;34.90
1413;DHT22;701;52.526;13.408;2023-03-14T06:08:30;12.00;33.70
1413;DHT22;701;52.526;13.408;2023-03-14T06:10:57;12.10;33.10
1413;DHT22;701;52.526;13.408;2023-03-14T06:13:27;12.10;33.10
1413;DHT22;701;52.526;13.408;2023-03-14T06:15:53;12.10;33.90
1413;DHT22;701;52.526;13.408;2023-03-14T06:18:19;12.20;34.00
1413;DHT22;701;52.526;13.408;2023-03-14T06:20:45;12.20;32.60
1413;DHT22;701;52.526;13.408;2023-03-14T06:23:19;12.30;33.10
1413;DHT22;701;52.526;13.408;2023-03-14T06:25:45;12.30;33.20
1413;DHT22;701;52.526;13.408;2023-03-14T06:28:11;12.40;32.10
1413;DHT22;701;52.526;13.408;2023-03-14T06:30:37;12.40;31.90
1413;DHT22;701;52.526;13.408;2023-03-14T06:33:03;12.40;31.80
1413;DHT22;701;52.526;13.408;2023-03-14T06:35:29;12.50;31.40
1413;DHT22;701;52.526;13.408;2023-03-14T06:37:55;12.50;30.40
1413;DHT22;701;52.526;13.408;2023-03-14T06:40:21;12.60;29.30
1413;DHT22;701;52.526;13.408;2023-03-14T06:43:06;12.60;30.10
1413;DHT22;701;52.526;13.408;2023-03-14T06:45:33;12.70;28.30
1413;DHT22;701;52.526;13.408;2023-03-14T06:48:01;12.70;28.80
1413;DHT22;701;52.526;13.408;2023-03-14T06:50:37;12.80;28.60
1413;DHT22;701;52.526;13.408;2023-03-14T06:53:03;12.90;29.00
1413;DHT22;701;52.526;13.408;2023-03-14T06:55:30;13.00;28.60
1413;DHT22;701;52.526;13.408;2023-03-14T06:57:55;13.10;28.30
1413;DHT22;701;52.526;13.408;2023-03-14T07:00:21;13.20;27.40
1413;DHT22;701;52.526;13.408;2023-03-14T07:02:50;13.30;27.80
1413;DHT22;701;52.526;13.408;2023-03-14T07:05:36;13.40;26.30
1413;DHT22;701;52.526;13.408;2023-03-14T07:08:04;13.50;27.00
1413;DHT22;701;52.526;13.408;2023-03-14T07:10:30;13.60;26.50
1413;DHT22;701;52.526;13.408;2023-03-14T07:12:56;13.70;26.50
1413;DHT22;701;52.526;13.408;2023-03-14T07:15:25;13.90;26.70
1413;DHT22;701;52.526;13.408;2023-03-14T07:17:55;14.00;26.80
1413;DHT22;701;52.526;13.408;2023-03-14T07:20:23;14.00;26.50
1413;DHT22;701;52.526;13.408;2023-03-14T07:22:50;14.00;25.40
1413;DHT22;701;52.526;13.408;2023-03-14T07:25:20;14.00;25.70
1413;DHT22;701;52.526;13.408;2023-03-14T07:27:46;14.00;24.80
1413;DHT22;701;52.526;13.408;2023-03-14T07:30:14;13.90;24.50
1413;DHT22;701;52.526;13.408;2023-03-14T07:32:40;13.90;24.30
1413;DHT22;701;52.526;13.408;2023-03-14T07:35:06;13.90;24.60
1413;DHT22;701;52.526;13.408;2023-03-14T07:37:35;13.90;24.50
1413;DHT22;701;52.526;13.408;2023-03-14T07:40:03;14.00;25.40
1413;DHT22;701;52.526;13.408;2023-03-14T07:42:32;14.00;24.10
1413;DHT22;701;52.526;13.408;2023-03-14T07:45:10;14.00;24.30
1413;DHT22;701;52.526;13.408;2023-03-14T07:47:36;13.90;24.50
1413;DHT22;701;52.526;13.408;2023-03-14T07:50:04;13.80;25.10
1413;DHT22;701;52.526;13.408;2023-03-14T07:52:30;13.70;24.60
1413;DHT22;701;52.526;13.408;2023-03-14T07:54:56;13.70;24.90
1413;DHT22;701;52.526;13.408;2023-03-14T07:57:22;13.60;25.60
1413;DHT22;701;52.526;13.408;2023-03-14T07:59:49;13.50;25.70
1413;DHT22;701;52.526;13.408;2023-03-14T08:02:15;13.40;26.20
1413;DHT22;701;52.526;13.408;2023-03-14T08:04:41;13.40;26.60
1413;DHT22;701;52.526;13.408;2023-03-14T08:07:07;13.40;27.10
1413;DHT22;701;52.526;13.408;2023-03-14T08:09:33;13.40;26.90
1413;DHT22;701;52.526;13.408;2023-03-14T08:11:59;13.60;26.80
1413;DHT22;701;52.526;13.408;2023-03-14T08:14:25;13.70;26.50
1413;DHT22;701;52.526;13.408;2023-03-14T08:16:51;13.90;26.10
1413;DHT22;701;52.526;13.408;2023-03-14T08:19:17;14.00;24.80
1413;DHT22;701;52.526;13.408;2023-03-14T08:21:43;14.20;25.30
1413;DHT22;701;52.526;13.408;2023-03-14T08:24:09;14.40;24.00
1413;DHT22;701;52.526;13.408;2023-03-14T08:26:35;14.50;23.70
1413;DHT22;701;52.526;13.408;2023-03-14T08:29:01;14.70;24.20
1413;DHT22;701;52.526;13.408;2023-03-14T08:31:26;14.90;24.20
1413;DHT22;701;52.526;13.408;2023-03-14T08:33:52;14.90;23.70
1413;DHT22;701;52.526;13.408;2023-03-14T08:36:19;15.00;22.90
1413;DHT22;701;52.526;13.408;2023-03-14T08:38:45;15.10;22.30
1413;DHT22;701;52.526;13.408;2023-03-14T08:41:11;15.20;22.70
1413;DHT22;701;52.526;13.408;2023-03-14T08:43:37;15.20;22.70
1413;DHT22;701;52.526;13.408;2023-03-14T08:46:03;15.30;22.70
1413;DHT22;701;52.526;13.408;2023-03-14T08:48:30;15.30;22.50
1413;DHT22;701;52.526;13.408;2023-03-14T08:51:13;15.20;21.00
1413;DHT22;701;52.526;13.408;2023-03-14T08:53:39;15.20;20.40
1413;DHT22;701;52.526;13.408;2023-03-14T08:56:06;15.10;21.30
1413;DHT22;701;52.526;13.408;2023-03-14T08:58:36;15.10;22.60
1413;DHT22;701;52.526;13.408;2023-03-14T09:01:07;15.00;21.40
1413;DHT22;701;52.526;13.408;2023-03-14T09:03:33;15.00;22.80
1413;DHT22;701;52.526;13.408;2023-03-14T09:06:08;15.00;23.20
1413;DHT22;701;52.526;13.408;2023-03-14T09:08:35;15.00;22.70
1413;DHT22;701;52.526;13.408;2023-03-14T09:11:01;15.00;23.00
1413;DHT22;701;52.526;13.408;2023-03-14T09:13:27;15.00;22.80
1413;DHT22;701;52.526;13.408;2023-03-14T09:15:56;15.20;22.80
1413;DHT22;701;52.526;13.408;2023-03-14T09:18:22;15.40;22.40
1413;DHT22;701;52.526;13.408;2023-03-14T09:20:49;15.70;20.70
1413;DHT22;701;52.526;13.408;2023-03-14T09:23:15;16.00;21.30
1413;DHT22;701;52.526;13.408;2023-03-14T09:25:41;16.40;19.30
1413;DHT22;701;52.526;13.408;2023-03-14T09:28:07;17.30;19.00
1413;DHT22;701;52.526;13.408;2023-03-14T09:30:33;18.30;18.10
1413;DHT22;701;52.526;13.408;2023-03-14T09:32:59;19.60;16.00
1413;DHT22;701;52.526;13.408;2023-03-14T09:35:25;20.80;14.70
1413;DHT22;701;52.526;13.408;2023-03-14T09:37:51;22.00;12.10
1413;DHT22;701;52.526;13.408;2023-03-14T09:40:18;23.00;10.10
1413;DHT22;701;52.526;13.408;2023-03-14T09:42:48;23.80;6.50
1413;DHT22;701;52.526;13.408;2023-03-14T09:45:29;24.30;4.00
1413;DHT22;701;52.526;13.408;2023-03-14T09:47:57;24.20;3.40
1413;DHT22;701;52.526;13.408;2023-03-14T09:50:25;23.80;4.80
1413;DHT22;701;52.526;13.408;2023-03-14T09:53:02;23.30;6.20
1413;DHT22;701;52.526;13.408;2023-03-14T09:55:28;22.60;4.70
1413;DHT22;701;52.526;13.408;2023-03-14T09:58:00;21.90;7.40
1413;DHT22;701;52.526;13.408;2023-03-14T10:00:30;21.20;6.70
1413;DHT22;701;52.526;13.408;2023-03-14T10:05:41;20.00;8.50
1413;DHT22;701;52.526;13.408;2023-03-14T10:08:10;19.50;10.90
1413;DHT22;701;52.526;13.408;2023-03-14T10:10:36;19.10;11.00
1413;DHT22;701;52.526;13.408;2023-03-14T10:13:17;18.80;12.10
1413;DHT22;701;52.526;13.408;2023-03-14T10:15:54;18.40;10.10
1413;DHT22;701;52.526;13.408;2023-03-14T10:18:22;18.10;11.10
1413;DHT22;701;52.526;13.408;2023-03-14T10:20:50;17.80;12.70
1413;DHT22;701;52.526;13.408;2023-03-14T10:23:28;17.60;13.00
1413;DHT22;701;52.526;13.408;2023-03-14T10:26:28;17.40;12.50
1413;DHT22;701;52.526;13.408;2023-03-14T10:29:08;17.30;12.40
1413;DHT22;701;52.526;13.408;2023-03-14T10:34:17;17.10;12.60
1413;DHT22;701;52.526;13.408;2023-03-14T10:36:43;17.10;13.80
1413;DHT22;701;52.526;13.408;2023-03-14T10:42:27;16.80;13.00
1413;DHT22;701;52.526;13.408;2023-03-14T10:45:31;16.80;12.60
1413;DHT22;701;52.526;13.408;2023-03-14T10:48:05;16.50;11.90
1413;DHT22;701;52.526;13.408;2023-03-14T10:50:32;16.40;13.00
1413;DHT22;701;52.526;13.408;2023-03-14T10:53:02;16.40;13.80
1413;DHT22;701;52.526;13.408;2023-03-14T10:55:42;16.40;14.00
1413;DHT22;701;52.526;13.408;2023-03-14T10:58:22;16.30;12.90
1413;DHT22;701;52.526;13.408;2023-03-14T11:03:42;16.20;14.10
1413;DHT22;701;52.526;13.408;2023-03-14T11:06:20;16.10;13.50
1413;DHT22;701;52.526;13.408;2023-03-14T11:11:29;16.20;13.60
1413;DHT22;701;52.526;13.408;2023-03-14T11:14:28;16.20;14.10
1413;DHT22;701;52.526;13.408;2023-03-14T11:17:07;16.30;13.10
1413;DHT22;701;52.526;13.408;2023-03-14T11:20:04;16.20;13.60
1413;DHT22;701;52.526;13.408;2023-03-14T11:23:27;16.30;13.70
1413;DHT22;701;52.526;13.408;2023-03-14T11:26:19;16.20;13.40
1413;DHT22;701;52.526;13.408;2023-03-14T11:28:50;16.30;13.70
1413;DHT22;701;52.526;13.408;2023-03-14T11:36:51;16.20;13.10
1413;DHT22;701;52.526;13.408;2023-03-14T11:39:20;16.00;13.50
1413;DHT22;701;52.526;13.408;2023-03-14T11:41:57;16.00;13.50
1413;DHT22;701;52.526;13.408;2023-03-14T11:44:34;16.00;14.00
1413;DHT22;701;52.526;13.408;2023-03-14T11:47:06;16.10;14.60
1413;DHT22;701;52.526;13.408;2023-03-14T11:49:58;16.10;14.80
1413;DHT22;701;52.526;13.408;2023-03-14T11:52:39;16.20;13.60
1413;DHT22;701;52.526;13.408;2023-03-14T11:55:32;16.30;13.90
1413;DHT22;701;52.526;13.408;2023-03-14T11:58:03;16.40;13.80
1413;DHT22;701;52.526;13.408;2023-03-14T12:00:33;16.50;14.60
1413;DHT22;701;52.526;13.408;2023-03-14T12:03:20;16.60;15.20
1413;DHT22;701;52.526;13.408;2023-03-14T12:08:45;16.90;13.80
1413;DHT22;701;52.526;13.408;2023-03-14T12:11:13;16.90;13.40
1413;DHT22;701;52.526;13.408;2023-03-14T12:13:40;16.90;14.10
1413;DHT22;701;52.526;13.408;2023-03-14T12:16:33;16.90;14.10
1413;DHT22;701;52.526;13.408;2023-03-14T12:24:37;17.20;13.10
1413;DHT22;701;52.526;13.408;2023-03-14T12:27:05;17.20;14.30
1413;DHT22;701;52.526;13.408;2023-03-14T12:29:57;17.10;14.20
1413;DHT22;701;52.526;13.408;2023-03-14T12:32:25;17.00;14.10
1413;DHT22;701;52.526;13.408;2023-03-14T12:34:51;17.00;15.10
1413;DHT22;701;52.526;13.408;2023-03-14T12:37:33;17.00;15.50
1413;DHT22;701;52.526;13.408;2023-03-14T12:40:11;17.00;14.90
1413;DHT22;701;52.526;13.408;2023-03-14T12:45:28;16.90;15.20
1413;DHT22;701;52.526;13.408;2023-03-14T12:50:35;17.00;14.60
1413;DHT22;701;52.526;13.408;2023-03-14T12:55:39;16.90;15.00
1413;DHT22;701;52.526;13.408;2023-03-14T12:58:29;17.00;15.70
1413;DHT22;701;52.526;13.408;2023-03-14T13:01:01;17.10;15.40
1413;DHT22;701;52.526;13.408;2023-03-14T13:03:54;17.20;15.90
1413;DHT22;701;52.526;13.408;2023-03-14T13:12:07;16.70;15.90
1413;DHT22;701;52.526;13.408;2023-03-14T13:14:34;16.50;17.30
1413;DHT22;701;52.526;13.408;2023-03-14T13:17:01;16.30;17.40
1413;DHT22;701;52.526;13.408;2023-03-14T13:19:30;16.20;18.80
1413;DHT22;701;52.526;13.408;2023-03-14T13:22:19;16.00;19.20
1413;DHT22;701;52.526;13.408;2023-03-14T13:24:46;15.90;19.90
1413;DHT22;701;52.526;13.408;2023-03-14T13:27:19;15.80;20.80
1413;DHT22;701;52.526;13.408;2023-03-14T13:29:49;15.80;21.90
1413;DHT22;701;52.526;13.408;2023-03-14T13:32:26;15.80;22.90
1413;DHT22;701;52.526;13.408;2023-03-14T13:34:56;15.90;22.60
1413;DHT22;701;52.526;13.408;2023-03-14T13:37:23;16.10;23.00
1413;DHT22;701;52.526;13.408;2023-03-14T13:39:51;16.20;22.80
1413;DHT22;701;52.526;13.408;2023-03-14T13:42:17;16.30;22.10
1413;DHT22;701;52.526;13.408;2023-03-14T13:44:44;16.30;22.40
1413;DHT22;701;52.526;13.408;2023-03-14T13:47:17;16.20;22.00
1413;DHT22;701;52.526;13.408;2023-03-14T13:49:44;16.20;21.80
1413;DHT22;701;52.526;13.408;2023-03-14T13:52:31;16.10;20.90
1413;DHT22;701;52.526;13.408;2023-03-14T13:54:59;16.00;21.10
1413;DHT22;701;52.526;13.408;2023-03-14T13:57:25;15.90;22.10
1413;DHT22;701;52.526;13.408;2023-03-14T14:00:03;16.00;22.40
1413;DHT22;701;52.526;13.408;2023-03-14T14:02:33;16.10;20.90
1413;DHT22;701;52.526;13.408;2023-03-14T14:05:00;16.30;21.10
1413;DHT22;701;52.526;13.408;2023-03-14T14:07:26;16.40;20.00
1413;DHT22;701;52.526;13.408;2023-03-14T14:09:52;16.60;19.60
1413;DHT22;701;52.526;13.408;2023-03-14T14:12:30;16.60;17.60
1413;DHT22;701;52.526;13.408;2023-03-14T14:14:58;16.60;17.00
1413;DHT22;701;52.526;13.408;2023-03-14T14:17:36;16.70;16.80
1413;DHT22;701;52.526;13.408;2023-03-14T14:20:08;16.70;16.50
1413;DHT22;701;52.526;13.408;2023-03-14T14:22:39;16.80;16.70
1413;DHT22;701;52.526;13.408;2023-03-14T14:25:06;16.70;16.60
1413;DHT22;701;52.526;13.408;2023-03-14T14:27:41;16.60;17.00
1413;DHT22;701;52.526;13.408;2023-03-14T14:30:26;16.40;16.90
1413;DHT22;701;52.526;13.408;2023-03-14T14:32:52;16.20;16.80
1413;DHT22;701;52.526;13.408;2023-03-14T14:35:33;16.10;17.70
1413;DHT22;701;52.526;13.408;2023-03-14T14:37:59;16.10;17.70
1413;DHT22;701;52.526;13.408;2023-03-14T14:40:30;16.10;19.00
1413;DHT22;701;52.526;13.408;2023-03-14T14:43:04;16.10;18.60
1413;DHT22;701;52.526;13.408;2023-03-14T14:45:33;16.10;18.20
1413;DHT22;701;52.526;13.408;2023-03-14T14:52:58;16.10;17.80
1413;DHT22;701;52.526;13.408;2023-03-14T14:55:32;16.10;17.20
1413;DHT22;701;52.526;13.408;2023-03-14T14:58:12;16.10;17.30
1413;DHT22;701;52.526;13.408;2023-03-14T15:00:41;16.00;16.40
1413;DHT22;701;52.526;13.408;2023-03-14T15:03:14;16.10;17.60
1413;DHT22;701;52.526;13.408;2023-03-14T15:05:40;16.10;17.20
1413;DHT22;701;52.526;13.408;2023-03-14T15:08:13;16.00;17.20
1413;DHT22;701;52.526;13.408;2023-03-14T15:10:38;15.90;17.10
1413;DHT22;701;52.526;13.408;2023-03-14T15:13:04;15.80;18.00
1413;DHT22;701;52.526;13.408;2023-03-14T15:15:30;15.70;18.50
1413;DHT22;701;52.526;13.408;2023-03-14T15:17:56;15.70;18.80
1413;DHT22;701;52.526;13.408;2023-03-14T15:20:22;15.60;19.30
1413;DHT22;701;52.526;13.408;2023-03-14T15:22:51;15.40;19.00
1413;DHT22;701;52.526;13.408;2023-03-14T15:25:17;14.80;21.40
1413;DHT22;701;52.526;13.408;2023-03-14T15:27:43;13.80;23.00
1413;DHT22;701;52.526;13.408;2023-03-14T15:30:11;12.90;24.80
1413;DHT22;701;52.526;13.408;2023-03-14T15:32:37;12.10;26.40
1413;DHT22;701;52.526;13.408;2023-03-14T15:35:03;11.40;27.80
1413;DHT22;701;52.526;13.408;2023-03-14T15:37:29;10.90;29.50
1413;DHT22;701;52.526;13.408;2023-03-14T15:39:56;10.40;31.00
1413;DHT22;701;52.526;13.408;2023-03-14T15:42:23;10.00;31.60
1413;DHT22;701;52.526;13.408;2023-03-14T15:44:49;9.60;34.50
1413;DHT22;701;52.526;13.408;2023-03-14T15:47:15;9.30;34.90
1413;DHT22;701;52.526;13.408;2023-03-14T15:49:41;9.00;35.20
1413;DHT22;701;52.526;13.408;2023-03-14T15:52:07;8.70;36.50
1413;DHT22;701;52.526;13.408;2023-03-14T15:54:34;8.40;38.40
1413;DHT22;701;52.526;13.408;2023-03-14T15:57:00;8.20;38.20
1413;DHT22;701;52.526;13.408;2023-03-14T15:59:26;8.00;37.90
1413;DHT22;701;52.526;13.408;2023-03-14T16:01:51;7.80;37.40
1413;DHT22;701;52.526;13.408;2023-03-14T16:04:17;7.40;34.50
1413;DHT22;701;52.526;13.408;2023-03-14T16:06:44;6.90;33.30
1413;DHT22;701;52.526;13.408;2023-03-14T16:09:13;6.60;33.10
1413;DHT22;701;52.526;13.408;2023-03-14T16:11:39;6.10;33.50
1413;DHT22;701;52.526;13.408;2023-03-14T16:14:05;5.90;35.50
1413;DHT22;701;52.526;13.408;2023-03-14T16:16:32;5.60;36.60
1413;DHT22;701;52.526;13.408;2023-03-14T16:18:58;5.50;37.30
1413;DHT22;701;52.526;13.408;2023-03-14T16:21:23;5.30;37.30
1413;DHT22;701;52.526;13.408;2023-03-14T16:23:49;5.20;38.70
1413;DHT22;701;52.526;13.408;2023-03-14T16:26:18;5.10;39.10
1413;DHT22;701;52.526;13.408;2023-03-14T16:28:45;4.90;39.80
1413;DHT22;701;52.526;13.408;2023-03-14T16:31:13;4.80;40.30
1413;DHT22;701;52.526;13.408;2023-03-14T16:33:40;4.60;40.90
1413;DHT22;701;52.526;13.408;2023-03-14T16:36:08;4.50;41.40
1413;DHT22;701;52.526;13.408;2023-03-14T16:38:35;4.50;42.20
1413;DHT22;701;52.526;13.408;2023-03-14T16:41:06;4.30;42.10
1413;DHT22;701;52.526;13.408;2023-03-14T16:43:33;4.30;42.10
1413;DHT22;701;52.526;13.408;2023-03-14T16:46:01;4.20;42.50
1413;DHT22;701;52.526;13.408;2023-03-14T16:48:28;4.10;43.50
1413;DHT22;701;52.526;13.408;2023-03-14T16:50:54;4.00;44.70
1413;DHT22;701;52.526;13.408;2023-03-14T16:53:20;4.00;44.70
1413;DHT22;701;52.526;13.408;2023-03-14T16:55:46;4.00;45.60
1413;DHT22;701;52.526;13.408;2023-03-14T16:58:12;4.00;46.10
1413;DHT22;701;52.526;13.408;2023-03-14T17:00:38;3.90;45.50
1413;DHT22;701;52.526;13.408;2023-03-14T17:03:04;4.00;46.30
1413;DHT22;701;52.526;13.408;2023-03-14T17:05:31;4.00;46.40
1413;DHT22;701;52.526;13.408;2023-03-14T17:07:57;4.00;46.60
1413;DHT22;701;52.526;13.408;2023-03-14T17:10:23;3.90;46.20
1413;DHT22;701;52.526;13.408;2023-03-14T17:12:49;3.90;46.20
1413;DHT22;701;52.526;13.408;2023-03-14T17:15:15;3.90;46.30